Terminal Aerodrome Forecast
Issued by NWS

Home | Current Version | Previous Version | Text Only | Print | Product List | Glossary On
Versions: 1 2 3 4 5 6 7 8 9 10 11 12 13 14 15 16 17 18
991
FTAK31 PAJN 200525
TAFAJN
TAF
PAJN 200525Z 2006/2106 10005KT P6SM VCSH SCT009 BKN050 OVC070
     FM200900 10006KT 5SM -SHRA BR BKN025 OVC040
     FM201800 12010KT P6SM -SHRA OVC025
     FM210000 12011KT P6SM OVC050=

USA.gov is the U.S. government's official web portal to all federal, state and local government web resources and services.